createdAt,value
2019-03-19T00:00:07.768Z,8.23
2019-03-19T00:02:34.108Z,12.43
2019-03-19T00:05:00.410Z,8.30
2019-03-19T00:07:36.931Z,14.90
2019-03-19T00:09:54.997Z,11.85
2019-03-19T00:12:21.349Z,11.57
2019-03-19T00:14:47.730Z,11.53
2019-03-19T00:17:14.037Z,18.27
2019-03-19T00:19:40.385Z,10.48
2019-03-19T00:22:06.473Z,12.82
2019-03-19T00:24:32.794Z,9.10
2019-03-19T00:26:59.062Z,9.43
2019-03-19T00:29:25.350Z,11.70
2019-03-19T00:31:51.588Z,13.45
2019-03-19T00:34:17.961Z,9.40
2019-03-19T00:36:44.271Z,13.65
2019-03-19T00:39:10.693Z,15.78
2019-03-19T00:41:36.939Z,15.13
2019-03-19T00:44:03.241Z,12.40
2019-03-19T00:46:29.535Z,12.63
2019-03-19T00:48:55.883Z,17.20
2019-03-19T00:51:22.166Z,14.87
2019-03-19T00:53:48.355Z,10.18
2019-03-19T00:56:14.703Z,14.50
2019-03-19T00:58:40.888Z,12.75
2019-03-19T01:04:03.392Z,16.10
2019-03-19T01:06:29.635Z,15.38
2019-03-19T01:08:56.021Z,19.07
2019-03-19T01:11:22.297Z,15.95
2019-03-19T01:13:48.629Z,12.18
2019-03-19T01:16:14.866Z,16.87
2019-03-19T01:18:41.167Z,13.28
2019-03-19T01:21:07.461Z,8.58
2019-03-19T01:23:33.768Z,13.95
2019-03-19T01:26:00.039Z,17.73
2019-03-19T01:28:26.387Z,15.65
2019-03-19T01:30:52.668Z,19.15
2019-03-19T01:33:18.936Z,25.32
2019-03-19T01:35:45.235Z,27.25
2019-03-19T01:38:11.447Z,20.30
2019-03-19T01:40:39.586Z,29.75
2019-03-19T01:43:08.807Z,24.63
2019-03-19T01:45:35.005Z,19.07
2019-03-19T01:48:01.439Z,22.20
2019-03-19T01:50:27.618Z,20.02
2019-03-19T01:52:53.938Z,21.60
2019-03-19T01:55:20.196Z,32.10
2019-03-19T01:57:49.199Z,22.32
2019-03-19T02:00:18.822Z,18.92
2019-03-19T02:02:45.047Z,19.82
2019-03-19T02:05:11.222Z,29.57
2019-03-19T02:07:37.495Z,36.45
2019-03-19T02:10:09.414Z,30.12
2019-03-19T02:12:35.723Z,25.52
2019-03-19T02:15:02.125Z,23.00
2019-03-19T02:17:28.435Z,21.20
2019-03-19T02:19:54.719Z,24.98
2019-03-19T02:22:21.145Z,23.12
2019-03-19T02:24:47.490Z,23.00
2019-03-19T02:27:13.667Z,18.87
2019-03-19T02:29:40.007Z,19.45
2019-03-19T02:32:06.149Z,18.92
2019-03-19T02:34:32.534Z,17.05
2019-03-19T02:36:58.833Z,25.62
2019-03-19T02:39:25.097Z,20.65
2019-03-19T02:41:51.432Z,20.92
2019-03-19T02:44:17.736Z,22.87
2019-03-19T02:46:44.090Z,17.90
2019-03-19T02:49:13.132Z,28.02
2019-03-19T02:51:39.416Z,21.97
2019-03-19T02:54:05.765Z,21.73
2019-03-19T02:56:33.943Z,17.50
2019-03-19T02:59:00.195Z,19.30
2019-03-19T03:01:26.480Z,19.07
2019-03-19T03:03:56.323Z,19.02
2019-03-19T03:06:22.576Z,15.68
2019-03-19T03:08:48.844Z,23.20
2019-03-19T03:11:15.102Z,19.12
2019-03-19T03:13:41.420Z,22.27
2019-03-19T03:16:07.709Z,22.70
2019-03-19T03:18:33.891Z,31.48
2019-03-19T03:21:05.429Z,25.72
2019-03-19T03:23:31.713Z,25.95
2019-03-19T03:25:57.885Z,23.62
2019-03-19T03:28:24.013Z,23.18
2019-03-19T03:30:50.303Z,22.73
2019-03-19T03:33:16.597Z,22.82
2019-03-19T03:35:42.916Z,19.27
2019-03-19T03:38:10.980Z,16.55
2019-03-19T03:40:37.255Z,21.40
2019-03-19T03:43:03.636Z,16.85
2019-03-19T03:45:29.893Z,14.13
2019-03-19T03:47:56.082Z,15.03
2019-03-19T03:50:22.359Z,15.70
2019-03-19T03:52:48.887Z,17.92
2019-03-19T03:55:17.610Z,19.07
2019-03-19T03:57:43.943Z,16.10
2019-03-19T04:00:15.469Z,17.70
2019-03-19T04:02:44.658Z,10.18
2019-03-19T04:05:09.907Z,12.13
2019-03-19T04:07:36.171Z,15.10
2019-03-19T04:10:05.375Z,14.55
2019-03-19T04:15:35.046Z,26.25
2019-03-19T04:18:01.260Z,26.68
2019-03-19T04:20:27.435Z,27.48
2019-03-19T04:22:53.871Z,28.75
2019-03-19T04:25:20.063Z,25.17
2019-03-19T04:27:46.299Z,22.90
2019-03-19T04:30:16.457Z,24.92
2019-03-19T04:32:42.798Z,18.17
2019-03-19T04:35:08.994Z,18.00
2019-03-19T04:37:35.319Z,12.63
2019-03-19T04:40:01.580Z,10.82
2019-03-19T04:42:27.896Z,10.23
2019-03-19T04:44:54.206Z,10.63
2019-03-19T04:47:20.509Z,9.60
2019-03-19T04:49:46.881Z,9.73
2019-03-19T04:52:13.230Z,8.55
2019-03-19T04:54:39.821Z,9.03
2019-03-19T04:57:06.213Z,9.83
2019-03-19T04:59:32.596Z,14.65
2019-03-19T05:01:58.878Z,14.68
2019-03-19T05:04:25.828Z,20.02
2019-03-19T05:06:51.871Z,12.07
2019-03-19T05:09:18.119Z,9.98
2019-03-19T05:11:44.402Z,9.18
2019-03-19T05:14:12.572Z,9.88
2019-03-19T05:16:38.774Z,8.15
2019-03-19T05:19:04.924Z,11.57
2019-03-19T05:21:31.215Z,6.72
2019-03-19T05:23:57.528Z,6.05
2019-03-19T05:26:23.671Z,7.80
2019-03-19T05:28:50.024Z,6.33
2019-03-19T05:31:16.244Z,9.23
2019-03-19T05:33:42.542Z,11.50
2019-03-19T05:36:08.815Z,15.93
2019-03-19T05:38:35.114Z,10.28
2019-03-19T05:41:01.517Z,13.03
2019-03-19T05:43:27.824Z,16.37
2019-03-19T05:45:54.001Z,14.63
2019-03-19T05:48:20.287Z,20.45
2019-03-19T05:50:46.630Z,12.60
2019-03-19T05:53:14.446Z,13.70
2019-03-19T05:55:49.209Z,26.82
2019-03-19T05:58:15.529Z,22.85
2019-03-19T06:00:41.676Z,64.22
2019-03-19T06:03:07.952Z,34.20
2019-03-19T06:05:34.211Z,44.25
2019-03-19T06:08:00.374Z,23.55
2019-03-19T06:10:26.622Z,17.90
2019-03-19T06:12:52.881Z,15.30
2019-03-19T06:15:19.138Z,10.58
2019-03-19T06:17:45.399Z,13.68
2019-03-19T06:20:13.078Z,14.38
2019-03-19T06:22:39.448Z,22.10
2019-03-19T06:25:07.465Z,20.88
2019-03-19T06:27:33.830Z,22.27
2019-03-19T06:30:00.334Z,30.68
2019-03-19T06:32:26.609Z,21.65
2019-03-19T06:34:52.927Z,20.10
2019-03-19T06:37:19.262Z,27.10
2019-03-19T06:39:45.430Z,25.45
2019-03-19T06:42:13.432Z,19.77
2019-03-19T06:44:39.681Z,34.83
2019-03-19T06:47:05.966Z,27.02
2019-03-19T06:49:32.092Z,27.37
2019-03-19T06:51:59.285Z,21.42
2019-03-19T06:54:25.774Z,30.17
2019-03-19T06:56:51.944Z,27.98
2019-03-19T06:59:18.241Z,23.12
2019-03-19T07:01:44.467Z,21.27
2019-03-19T07:04:13.290Z,20.35
2019-03-19T07:06:39.523Z,22.05
2019-03-19T07:09:06.895Z,19.75
2019-03-19T07:11:33.168Z,14.47
2019-03-19T07:13:59.403Z,11.40
2019-03-19T07:16:25.717Z,16.05
2019-03-19T07:18:51.990Z,12.78
2019-03-19T07:21:19.391Z,17.32
2019-03-19T07:23:45.694Z,26.75
2019-03-19T07:26:12.060Z,28.40
2019-03-19T07:28:38.500Z,21.97
2019-03-19T07:31:05.043Z,18.32
2019-03-19T07:33:31.979Z,19.65
2019-03-19T07:35:58.344Z,16.27
2019-03-19T07:38:24.710Z,20.57
2019-03-19T07:40:51.048Z,20.02
2019-03-19T07:43:17.436Z,22.30
2019-03-19T07:45:43.752Z,22.77
2019-03-19T07:48:12.738Z,21.48
2019-03-19T07:50:38.943Z,18.67
2019-03-19T07:53:05.195Z,19.60
2019-03-19T07:55:31.401Z,13.78
2019-03-19T07:57:57.564Z,14.13
2019-03-19T08:00:23.715Z,12.85
2019-03-19T08:02:53.412Z,18.92
2019-03-19T08:05:19.562Z,20.88
2019-03-19T08:07:45.886Z,15.25
2019-03-19T08:10:18.786Z,13.00
2019-03-19T08:12:45.528Z,12.82
2019-03-19T08:15:14.183Z,18.10
2019-03-19T08:17:42.813Z,19.75
2019-03-19T08:20:13.008Z,17.30
2019-03-19T08:22:40.160Z,21.55
2019-03-19T08:25:14.962Z,31.25
2019-03-19T08:27:43.331Z,18.10
2019-03-19T08:30:25.083Z,15.25
2019-03-19T08:32:51.535Z,11.18
2019-03-19T08:35:17.503Z,11.03
2019-03-19T08:37:43.644Z,31.70
2019-03-19T08:40:12.039Z,12.35
2019-03-19T08:42:38.418Z,10.27
2019-03-19T08:45:35.372Z,8.90
2019-03-19T08:48:37.517Z,5.72
2019-03-19T08:51:31.819Z,10.10
2019-03-19T08:53:57.433Z,8.93
2019-03-19T08:56:32.629Z,9.23
2019-03-19T08:59:17.139Z,7.22
2019-03-19T09:03:11.488Z,11.05
2019-03-19T09:05:52.868Z,8.18
2019-03-19T09:08:10.093Z,15.18
2019-03-19T09:10:46.643Z,15.43
2019-03-19T09:13:13.233Z,7.95
2019-03-19T09:15:42.762Z,21.85
2019-03-19T09:18:10.251Z,8.30
2019-03-19T09:20:44.602Z,5.85
2019-03-19T09:23:33.453Z,9.13
2019-03-19T09:26:10.533Z,12.07
2019-03-19T09:28:43.053Z,5.85
2019-03-19T09:31:15.608Z,13.80
2019-03-19T09:33:54.710Z,9.85
2019-03-19T09:39:14.336Z,6.80
2019-03-19T09:41:45.896Z,25.55
2019-03-19T09:44:15.849Z,12.65
2019-03-19T09:47:03.239Z,7.17
2019-03-19T09:49:26.785Z,9.40
2019-03-19T09:51:52.959Z,7.75
2019-03-19T09:54:19.142Z,5.40
2019-03-19T09:56:45.447Z,3.90
2019-03-19T09:59:11.498Z,16.05
2019-03-19T10:01:37.778Z,15.38
2019-03-19T10:04:04.052Z,40.05
2019-03-19T10:06:30.310Z,13.98
2019-03-19T10:08:58.413Z,9.05
2019-03-19T10:11:24.806Z,9.35
2019-03-19T10:13:51.089Z,15.38
2019-03-19T10:16:17.443Z,7.15
2019-03-19T10:18:43.978Z,9.80
2019-03-19T10:21:10.279Z,9.85
2019-03-19T10:23:36.712Z,7.20
2019-03-19T10:26:04.581Z,6.53
2019-03-19T10:28:30.863Z,6.20
2019-03-19T10:30:57.206Z,11.85
2019-03-19T10:33:23.499Z,3.85
2019-03-19T10:35:51.726Z,7.92
2019-03-19T10:38:18.034Z,7.22
2019-03-19T10:40:44.360Z,8.08
2019-03-19T10:43:10.684Z,3.95
2019-03-19T10:45:41.881Z,17.82
2019-03-19T10:48:08.105Z,3.50
2019-03-19T10:50:34.370Z,6.17
2019-03-19T10:53:00.686Z,10.20
2019-03-19T10:55:27.002Z,7.40
2019-03-19T10:57:53.367Z,7.87
2019-03-19T11:00:23.380Z,10.13
2019-03-19T11:02:49.691Z,10.35
2019-03-19T11:05:16.351Z,5.75
2019-03-19T11:07:42.867Z,7.03
2019-03-19T11:10:10.716Z,8.18
2019-03-19T11:12:36.986Z,7.22
2019-03-19T11:15:06.663Z,9.33
2019-03-19T11:17:32.781Z,10.88
2019-03-19T11:19:59.029Z,7.62
2019-03-19T11:22:25.288Z,10.70
2019-03-19T11:24:51.526Z,12.78
2019-03-19T11:27:17.672Z,21.23
2019-03-19T11:29:43.890Z,9.60
2019-03-19T11:32:10.220Z,5.87
2019-03-19T11:34:36.583Z,8.55
2019-03-19T11:37:02.866Z,7.33
2019-03-19T11:39:32.126Z,4.97
2019-03-19T11:41:58.460Z,10.00
2019-03-19T11:44:27.413Z,8.45
2019-03-19T11:46:53.824Z,13.30
2019-03-19T11:49:20.143Z,3.75
2019-03-19T11:51:46.441Z,7.17
2019-03-19T11:54:12.749Z,5.35
2019-03-19T11:56:38.923Z,5.00
2019-03-19T11:59:10.185Z,8.88
2019-03-19T12:01:41.305Z,7.40
2019-03-19T12:04:42.718Z,5.15
2019-03-19T12:07:15.358Z,5.60
2019-03-19T12:10:14.254Z,4.10
2019-03-19T12:12:40.555Z,4.53
2019-03-19T12:15:11.390Z,6.58
2019-03-19T12:17:37.852Z,8.43
2019-03-19T12:20:07.011Z,7.62
2019-03-19T12:22:33.219Z,8.60
2019-03-19T12:25:38.864Z,15.68
2019-03-19T12:28:05.865Z,7.45
2019-03-19T12:33:40.304Z,8.73
2019-03-19T12:35:59.949Z,10.03
2019-03-19T12:38:33.248Z,8.15
2019-03-19T12:40:57.206Z,14.47
2019-03-19T12:43:23.402Z,8.38
2019-03-19T12:45:49.713Z,5.05
2019-03-19T12:48:16.000Z,6.87
2019-03-19T12:50:42.265Z,6.42
2019-03-19T12:53:08.550Z,11.97
2019-03-19T12:55:34.958Z,11.38
2019-03-19T12:58:01.638Z,7.53
2019-03-19T13:00:34.080Z,7.65
2019-03-19T13:02:56.491Z,10.23
2019-03-19T13:05:22.920Z,9.58
2019-03-19T13:07:49.492Z,11.73
2019-03-19T13:10:20.651Z,11.12
2019-03-19T13:12:47.057Z,7.50
2019-03-19T13:15:14.912Z,9.08
2019-03-19T13:17:42.265Z,12.65
2019-03-19T13:20:15.295Z,6.10
2019-03-19T13:22:41.533Z,10.53
2019-03-19T13:25:23.796Z,11.05
2019-03-19T13:27:50.000Z,9.93
2019-03-19T13:30:20.282Z,9.28
2019-03-19T13:32:46.301Z,12.50
2019-03-19T13:35:12.632Z,9.28
2019-03-19T13:37:40.771Z,7.12
2019-03-19T13:40:10.257Z,7.62
2019-03-19T13:42:36.407Z,12.25
2019-03-19T13:45:05.476Z,12.37
2019-03-19T13:47:31.521Z,4.40
2019-03-19T13:49:57.804Z,12.25
2019-03-19T13:52:24.079Z,9.78
2019-03-19T13:54:50.150Z,10.65
2019-03-19T13:57:16.452Z,7.55
2019-03-19T13:59:42.496Z,8.45
2019-03-19T14:02:08.820Z,13.85
2019-03-19T14:04:34.981Z,6.10
2019-03-19T14:07:01.219Z,10.00
2019-03-19T14:09:27.376Z,13.20
2019-03-19T14:11:53.407Z,6.22
2019-03-19T14:14:19.610Z,6.17
2019-03-19T14:16:45.951Z,7.55
2019-03-19T14:19:12.101Z,10.45
2019-03-19T14:21:38.084Z,9.13
2019-03-19T14:24:06.404Z,13.38
2019-03-19T14:26:34.508Z,7.50
2019-03-19T14:29:03.832Z,12.37
2019-03-19T14:33:56.233Z,13.28
2019-03-19T14:36:22.268Z,7.47
2019-03-19T14:38:48.585Z,28.17
2019-03-19T14:41:14.726Z,21.52
2019-03-19T14:43:40.772Z,24.60
2019-03-19T14:46:06.918Z,34.60
2019-03-19T14:48:32.803Z,31.97
2019-03-19T14:51:02.267Z,15.53
2019-03-19T14:53:28.410Z,16.10
2019-03-19T14:55:54.772Z,70.90
2019-03-19T14:58:21.161Z,36.95
2019-03-19T15:00:47.474Z,18.23
2019-03-19T15:03:15.771Z,29.42
2019-03-19T15:05:42.078Z,71.55
2019-03-19T15:08:08.155Z,10.28
2019-03-19T15:10:34.299Z,10.08
2019-03-19T15:13:00.233Z,18.70
2019-03-19T15:15:26.272Z,25.50
2019-03-19T15:17:52.213Z,62.53
2019-03-19T15:20:22.671Z,41.73
2019-03-19T15:22:48.747Z,16.23
2019-03-19T15:25:14.695Z,13.03
2019-03-19T15:27:40.601Z,16.15
2019-03-19T15:30:09.856Z,12.98
2019-03-19T15:32:35.804Z,15.25
2019-03-19T15:35:01.935Z,22.58
2019-03-19T15:37:27.925Z,14.23
2019-03-19T15:39:53.853Z,36.88
2019-03-19T15:42:19.877Z,18.98
2019-03-19T15:44:45.800Z,36.93
2019-03-19T15:47:11.707Z,30.60
2019-03-19T15:49:38.584Z,41.48
2019-03-19T15:52:04.714Z,14.65
2019-03-19T15:54:30.642Z,34.38
2019-03-19T15:56:56.572Z,11.18
2019-03-19T15:59:22.482Z,20.20
2019-03-19T16:01:48.428Z,19.30
2019-03-19T16:04:14.455Z,20.65
2019-03-19T16:06:40.395Z,23.22
2019-03-19T16:09:07.020Z,19.10
2019-03-19T16:11:34.170Z,23.62
2019-03-19T16:14:02.114Z,16.93
2019-03-19T16:16:28.112Z,13.13
2019-03-19T16:18:54.138Z,66.40
2019-03-19T16:21:20.084Z,39.38
2019-03-19T16:23:46.020Z,16.35
2019-03-19T16:26:11.980Z,17.25
2019-03-19T16:28:37.976Z,17.15
2019-03-19T16:31:03.970Z,20.45
2019-03-19T16:33:29.926Z,21.30
2019-03-19T16:35:55.842Z,24.23
2019-03-19T16:38:21.835Z,21.93
2019-03-19T16:40:47.746Z,23.52
2019-03-19T16:43:13.666Z,19.80
2019-03-19T16:45:39.592Z,16.52
2019-03-19T16:48:05.605Z,18.98
2019-03-19T16:50:31.618Z,12.58
2019-03-19T16:52:58.023Z,14.78
2019-03-19T16:55:24.061Z,19.10
2019-03-19T16:57:49.996Z,19.57
2019-03-19T17:00:21.674Z,15.25
2019-03-19T17:02:47.686Z,15.38
2019-03-19T17:05:15.567Z,25.62
2019-03-19T17:07:43.704Z,44.90
2019-03-19T17:10:15.353Z,34.90
2019-03-19T17:12:42.084Z,30.12
2019-03-19T17:15:10.735Z,19.75
2019-03-19T17:17:36.776Z,24.27
2019-03-19T17:20:05.816Z,20.00
2019-03-19T17:22:32.073Z,20.32
2019-03-19T17:24:59.920Z,23.55
2019-03-19T17:27:25.870Z,22.77
2019-03-19T17:29:52.216Z,28.92
2019-03-19T17:32:18.845Z,23.07
2019-03-19T17:34:45.098Z,58.63
2019-03-19T17:37:11.911Z,45.58
2019-03-19T17:39:38.217Z,77.60
2019-03-19T17:42:06.283Z,79.90
2019-03-19T17:44:32.571Z,56.48
2019-03-19T17:46:58.948Z,46.53
2019-03-19T17:49:25.329Z,28.70
2019-03-19T17:51:51.747Z,26.37
2019-03-19T17:54:20.669Z,18.95
2019-03-19T17:56:50.663Z,33.45
2019-03-19T17:59:19.665Z,37.42
2019-03-19T18:01:46.011Z,42.55
2019-03-19T18:04:12.406Z,37.63
2019-03-19T18:06:38.675Z,38.75
2019-03-19T18:09:05.956Z,40.58
2019-03-19T18:11:35.915Z,49.83
2019-03-19T18:14:01.956Z,112.97
2019-03-19T18:16:27.892Z,61.10
2019-03-19T18:18:53.828Z,54.48
2019-03-19T18:21:19.736Z,56.13
2019-03-19T18:23:45.658Z,66.33
2019-03-19T18:26:11.584Z,76.17
2019-03-19T18:28:37.514Z,45.23
2019-03-19T18:31:03.433Z,33.60
2019-03-19T18:33:29.441Z,29.82
2019-03-19T18:35:56.594Z,22.77
2019-03-19T18:38:22.908Z,21.70
2019-03-19T18:40:48.850Z,25.50
2019-03-19T18:43:14.769Z,20.45
2019-03-19T18:45:40.680Z,26.55
2019-03-19T18:48:06.615Z,16.17
2019-03-19T18:50:32.545Z,16.42
2019-03-19T18:52:58.481Z,18.73
2019-03-19T18:55:24.402Z,14.33
2019-03-19T18:57:50.341Z,17.95
2019-03-19T19:00:21.896Z,60.25
2019-03-19T19:02:50.312Z,35.05
2019-03-19T19:05:19.954Z,108.75
2019-03-19T19:07:46.111Z,105.05
2019-03-19T19:10:13.173Z,225.68
2019-03-19T19:12:39.151Z,51.83
2019-03-19T19:15:10.917Z,65.62
2019-03-19T19:17:36.861Z,37.55
2019-03-19T19:20:04.910Z,22.70
2019-03-19T19:22:30.861Z,26.20
2019-03-19T19:24:56.867Z,31.57
2019-03-19T19:27:22.841Z,22.32
2019-03-19T19:29:48.870Z,27.15
2019-03-19T19:32:14.797Z,47.13
2019-03-19T19:35:18.048Z,44.85
2019-03-19T19:37:43.985Z,63.75
2019-03-19T19:40:14.989Z,67.47
2019-03-19T19:42:40.976Z,244.68
2019-03-19T19:45:09.026Z,155.97
2019-03-19T19:47:35.005Z,149.20
2019-03-19T19:50:01.033Z,104.10
2019-03-19T19:52:27.013Z,92.37
2019-03-19T19:54:52.932Z,39.30
2019-03-19T19:57:18.855Z,50.28
2019-03-19T19:59:44.915Z,50.38
2019-03-19T20:02:10.919Z,24.40
2019-03-19T20:04:37.044Z,37.08
2019-03-19T20:07:03.076Z,30.90
2019-03-19T20:09:29.004Z,37.28
2019-03-19T20:11:54.921Z,39.45
2019-03-19T20:14:21.108Z,62.95
2019-03-19T20:16:47.113Z,51.18
2019-03-19T20:19:13.056Z,44.83
2019-03-19T20:21:38.988Z,45.75
2019-03-19T20:24:04.922Z,67.85
2019-03-19T20:26:30.867Z,59.45
2019-03-19T20:28:56.781Z,71.65
2019-03-19T20:31:22.716Z,57.83
2019-03-19T20:33:48.637Z,49.25
2019-03-19T20:36:14.559Z,41.95
2019-03-19T20:38:40.504Z,34.63
2019-03-19T20:41:06.438Z,37.88
2019-03-19T20:43:32.385Z,30.62
2019-03-19T20:45:58.359Z,39.25
2019-03-19T20:48:24.278Z,25.90
2019-03-19T20:50:50.216Z,34.78
2019-03-19T20:53:16.132Z,24.37
2019-03-19T20:55:42.072Z,39.15
2019-03-19T20:58:07.986Z,39.13
2019-03-19T21:00:33.931Z,31.07
2019-03-19T21:03:01.575Z,32.83
2019-03-19T21:05:27.543Z,34.40
2019-03-19T21:07:53.580Z,30.72
2019-03-19T21:10:20.751Z,35.50
2019-03-19T21:12:47.126Z,33.88
2019-03-19T21:15:15.053Z,33.78
2019-03-19T21:17:40.999Z,42.33
2019-03-19T21:20:14.462Z,40.75
2019-03-19T21:22:40.501Z,35.95
2019-03-19T21:25:08.465Z,52.00
2019-03-19T21:27:34.401Z,41.60
2019-03-19T21:30:00.603Z,45.08
2019-03-19T21:32:26.792Z,49.85
2019-03-19T21:34:52.741Z,45.63
2019-03-19T21:37:18.681Z,28.15
2019-03-19T21:39:44.714Z,38.48
2019-03-19T21:42:10.643Z,36.42
2019-03-19T21:44:36.554Z,54.08
2019-03-19T21:47:02.492Z,48.92
2019-03-19T21:49:28.407Z,66.12
2019-03-19T21:51:54.327Z,68.37
2019-03-19T21:54:20.246Z,61.18
2019-03-19T21:56:46.305Z,44.00
2019-03-19T21:59:12.243Z,39.75
2019-03-19T22:01:38.168Z,36.08
2019-03-19T22:04:04.081Z,37.58
2019-03-19T22:06:29.997Z,43.98
2019-03-19T22:08:55.915Z,44.18
2019-03-19T22:11:21.834Z,35.78
2019-03-19T22:13:47.761Z,66.75
2019-03-19T22:16:16.239Z,53.13
2019-03-19T22:18:42.161Z,45.58
2019-03-19T22:21:08.091Z,33.78
2019-03-19T22:23:34.008Z,30.45
2019-03-19T22:25:59.922Z,39.38
2019-03-19T22:28:25.854Z,44.70
2019-03-19T22:30:51.790Z,34.58
2019-03-19T22:33:17.714Z,25.12
2019-03-19T22:35:43.648Z,40.33
2019-03-19T22:38:15.355Z,25.50
2019-03-19T22:40:37.398Z,27.55
2019-03-19T22:43:03.321Z,20.27
2019-03-19T22:45:30.712Z,24.02
2019-03-19T22:48:00.252Z,30.48
2019-03-19T22:50:26.175Z,26.80
2019-03-19T22:52:52.105Z,16.75
2019-03-19T22:55:28.641Z,14.45
2019-03-19T22:57:45.962Z,13.62
2019-03-19T23:00:19.323Z,11.88
2019-03-19T23:02:45.256Z,14.73
2019-03-19T23:05:12.709Z,11.33
2019-03-19T23:07:38.646Z,17.07
2019-03-19T23:10:04.637Z,24.35
2019-03-19T23:12:30.561Z,19.73
2019-03-19T23:14:58.894Z,17.23
2019-03-19T23:17:24.822Z,11.80
2019-03-19T23:19:57.456Z,14.98
2019-03-19T23:22:23.486Z,16.77
2019-03-19T23:24:49.427Z,13.78
2019-03-19T23:27:15.352Z,18.80
2019-03-19T23:29:41.285Z,16.17
2019-03-19T23:32:07.313Z,11.33
2019-03-19T23:34:38.480Z,20.52
2019-03-19T23:37:01.097Z,17.07
2019-03-19T23:39:27.027Z,21.70
2019-03-19T23:41:52.955Z,14.68
2019-03-19T23:44:18.926Z,14.47
2019-03-19T23:46:44.837Z,15.50
2019-03-19T23:49:14.807Z,25.75
2019-03-19T23:51:40.733Z,19.17
2019-03-19T23:54:06.666Z,12.33
2019-03-19T23:56:32.679Z,14.95
2019-03-19T23:58:58.659Z,18.30
